ADDS METAR Data INFO
IDs: Format: Raw Decoded Include TAF

Data at: 0731 UTC 18 Oct 2017

KPIA 180654Z 20007KT 10SM CLR 10/05 A3015 RMK AO2 SLP210 T01000050
KPIA 180554Z 20007KT 10SM CLR 11/05 A3016 RMK AO2 SLP213 T01060050 10150 20106 402060061 58004
KPIA 180454Z 19008KT 10SM CLR 12/05 A3017 RMK AO2 SLPNO T01170050
KPIA 180354Z 20009KT 10SM CLR 13/06 A3017 RMK AO2 SLP217 T01280056
KPIA 180254Z 20009KT 10SM CLR 13/06 A3017 RMK AO2 SLP218 T01280056 51007
KPIA 180154Z 19008KT 10SM CLR 13/06 A3017 RMK AO2 SLP219 T01330056
KPIA 180054Z 19009KT 10SM CLR 14/06 A3016 RMK AO2 SLP215 T01440056
KPIA 172354Z 19007KT 10SM CLR 14/04 A3015 RMK AO2 SLP211 T01440044 10206 20144 53001
KPIA 172254Z 20009KT 10SM CLR 18/05 A3015 RMK AO2 SLP209 T01780050
KPIA 172154Z 23009KT 10SM CLR 19/05 A3014 RMK AO2 SLP207 T01940050
KPIA 172054Z 20014G19KT 10SM CLR 21/04 A3015 RMK AO2 SLP210 T02060044 56022
KPIA 171954Z 23012G20KT 10SM CLR 21/05 A3016 RMK AO2 SLP215 T02060050
KPIA 171854Z 23017KT 10SM CLR 20/05 A3019 RMK AO2 PK WND 22027/1758 SLP223 T02000050
KPIA 171754Z 23014G26KT 10SM CLR 20/06 A3022 RMK AO2 PK WND 21026/1754 SLP233 T02000056 58018
KPIA 171654Z 22016G26KT CLR A3025 RMK AO2 PK WND 22026/1649 SLPNO $
KPIA 171554Z 22012KT 10SM CLR 16/07 A3026 RMK AO2 SLP247 T01610072
KPIA 171454Z 21011KT 10SM CLR 13/07 A3027 RMK AO2 SLP252 T01280067 51003
KPIA 171354Z 20007KT 10SM CLR 10/06 A3027 RMK AO2 SLP252 T01000056
KPIA 171254Z 20005KT 10SM CLR 07/06 A3026 RMK AO2 SLP250 T00720056
KPIA 171154Z 19004KT 10SM CLR 07/04 A3026 RMK AO2 SLP249 T00670044 10089 20061 51007
KPIA 171054Z 21006KT 10SM CLR 07/05 A3025 RMK AO2 SLP246 T00670050
KPIA 170954Z 19005KT 10SM CLR 06/04 A3025 RMK AO2 SLP245 T00610044
KPIA 170854Z 19005KT 10SM CLR 07/04 A3024 RMK AO2 SLP241 T00670044 50003
KPIA 170754Z 21003KT 10SM CLR 08/04 A3024 RMK AO2 SLP241 T00780039
KPIA 170654Z 22004KT 10SM CLR 08/03 A3024 RMK AO2 SLP239 T00830033
KPIA 170554Z 20004KT 10SM CLR 08/04 A3023 RMK AO2 SLP238 T00830039 10139 20072 401830033 58006
KPIA 170454Z 00000KT 10SM CLR 08/04 A3024 RMK AO2 SLP242 T00780044
KPIA 170354Z 23003KT 10SM CLR 09/04 A3025 RMK AO2 SLP244 T00940044
KPIA 170254Z 21003KT 10SM CLR 11/04 A3025 RMK AO2 SLP245 T01060039 51003
KPIA 170154Z 00000KT 10SM CLR 09/06 A3025 RMK AO2 SLP247 T00940061
KPIA 170054Z 00000KT 10SM CLR 11/05 A3025 RMK AO2 SLP247 T01060050
KPIA 162354Z 00000KT 10SM CLR 14/03 A3024 RMK AO2 SLP243 T01390033 10183 20128 56006
KPIA 162254Z 24005KT 10SM CLR 17/02 A3024 RMK AO2 SLP242 T01670017
KPIA 162154Z 24009KT 10SM CLR 18/01 A3025 RMK AO2 SLP244 T01780006
KPIA 162054Z 27004KT 10SM CLR 18/01 A3026 RMK AO2 SLP248 T01830011 56020
KPIA 161954Z 24007KT 10SM CLR 18/03 A3028 RMK AO2 SLP254 T01830028